• Join FlightAware (Why Join?)
  • Login
  • US Flag 
03:41PM EDT


 

Airport Tracker/Info


-or-


 

Live Flight TrackerFlight Track Log ✈ XOJ552 ✈ 05-May-2013 ✈ KOAK - KSAN

Flight Track Log - Related Links

Times and Time Zones

All times are in EDT time to prevent confusion due to time zone crossing. See the XOJ552 flight status page for this flight to view local times or setup timezone preferences in your user account.

Time Position Orientation Groundspeed Altitude Reporting Facility
EDT Latitude Longitude Course Direction KTS MPH feet Rate Location/Type
05:35PM 37.7108 -122.1894 107° East 173 199 1,600  Level Oakland Center
05:36PM 37.6503 -122.1708 166° South 257 296 5,900 4,620 Climbing Oakland Center
05:38PM 37.5322 -122.0411 218° Southwest  Level Estimated
05:38PM 37.5108 -122.1525 218° Southwest 296 341 15,900  Level Oakland Center
05:39PM 37.4292 -122.0881 148° Southeast 352 405 18,900 3,360 Climbing Oakland Center
05:40PM 37.3444 -122.0169 146° Southeast 366 421 22,800 3,540 Climbing Oakland Center
05:41PM 37.2378 -122.2346 107° East  Level FlightAware Approximate
05:41PM 37.2583 -121.9489 148° Southeast 365 420 26,200  Level Oakland Center
05:42PM 37.1686 -121.8769 147° Southeast 381 438 27,900 2,040 Climbing Oakland Center
05:43PM 37.0756 -121.8031 148° Southeast 395 455 30,500 2,340 Climbing Oakland Center
05:44PM 36.9608 -121.7097 147° Southeast 407 468 32,700 1,860 Climbing Oakland Center
05:45PM 36.8661 -121.6131 141° Southeast 434 499 34,400 1,620 Climbing Oakland Center
05:46PM 36.7739 -121.5200 141° Southeast 444 511 36,100 1,620 Climbing Oakland Center
05:47PM 36.6756 -121.4206 141° Southeast 454 522 37,800 1,320 Climbing Oakland Center
05:48PM 36.5783 -121.3203 140° Southeast 454 522 38,900 1,020 Climbing Oakland Center
05:49PM 36.4769 -121.2211 142° Southeast 461 531 40,000 960 Climbing Oakland Center
05:50PM 36.3753 -121.1192 141° Southeast 467 537 40,900 480 Climbing Oakland Center
05:51PM 36.2522 -120.9972 141° Southeast 471 542 41,000  Climbing Oakland Center
05:52PM 36.1483 -120.8942 141° Southeast 478 550 41,000  Level Oakland Center
05:53PM 36.0439 -120.7914 141° Southeast 478 550 41,000  Level Oakland Center
05:54PM 35.9400 -120.6883 141° Southeast 479 551 41,000  Level Oakland Center
05:55PM 35.8369 -120.5864 141° Southeast 477 549 41,000  Level Oakland Center
05:57PM 35.7342 -120.4864 142° Southeast 472 543 41,000  Level Oakland Center
05:58PM 35.6306 -120.3867 142° Southeast 470 541 41,000  Level Oakland Center
05:59PM 35.5267 -120.2858 142° Southeast 469 540 41,000  Level Oakland Center
06:00PM 35.4272 -120.1897 142° Southeast 469 540 41,000  Level Oakland Center
06:01PM 35.2953 -120.0594 141° Southeast 477 549 41,000  Level Los Angeles Center
06:03PM 35.0889 -119.8600 142° Southeast 472 543 41,000  Level Oakland Center
06:04PM 34.9967 -119.7436 134° Southeast 476 548 41,000  Level Oakland Center
06:05PM 34.9053 -119.6272 134° Southeast 476 548 41,000  Level Oakland Center
06:06PM 34.8131 -119.5114 134° Southeast 476 548 41,000  Level Oakland Center
06:07PM 34.7208 -119.3947 134° Southeast 478 550 41,000  Level Oakland Center
06:08PM 34.5978 -119.2467 135° Southeast 480 552 41,000  Level Los Angeles Center
06:09PM 34.5050 -119.1328 135° Southeast 477 549 41,000  Level Los Angeles Center
06:10PM 34.4106 -119.0167 135° Southeast 481 554 41,000  Level Los Angeles Center
06:11PM 34.3172 -118.9019 135° Southeast 482 555 41,000  Level Los Angeles Center
06:12PM 34.2056 -118.7633 134° Southeast 480 552 41,000  Level Los Angeles Center
06:13PM 34.1117 -118.6500 135° Southeast 479 551 41,000 -300 Level Los Angeles Center
06:14PM 34.0172 -118.5353 135° Southeast 480 552 40,400 -1,500 Descending Los Angeles Center
06:15PM 33.9250 -118.4231 135° Southeast 473 544 37,900 -2,460 Descending Los Angeles Center
06:17PM 33.8086 -118.2778 134° Southeast 465 535 34,800 -2,460 Descending Los Angeles Center
06:18PM 33.7239 -118.1653 132° Southeast 474 545 32,400 -2,520 Descending Los Angeles Center
06:19PM 33.6325 -118.0503 134° Southeast 475 547 29,700 -2,640 Descending Los Angeles Center
06:20PM 33.5450 -117.9392 133° Southeast 462 532 27,000 -2,820 Descending Los Angeles Center
06:21PM 33.4483 -117.8175 134° Southeast 422 486 23,900 -2,760 Descending Los Angeles Center
06:22PM 33.3694 -117.7169 133° Southeast 416 479 21,400 -2,460 Descending Los Angeles Center
06:23PM 33.2833 -117.6167 136° Southeast 391 450 18,800 -2,340 Descending Southern California TRACON
06:24PM 33.2000 -117.5333 140° Southeast 382 440 16,600 -2,160 Descending Southern California TRACON
06:26PM 33.0333 -117.4000 146° Southeast 358 412 12,200 -2,040 Descending Southern California TRACON
06:27PM 32.9500 -117.3500 153° Southeast 319 367 10,300 -1,560 Descending Southern California TRACON
06:28PM 32.9000 -117.2833 132° Southeast 293 337 9,300 -1,260 Descending Southern California TRACON
06:29PM 32.8500 -117.2000 126° Southeast 290 334 7,900 -1,620 Descending Southern California TRACON
06:30PM 32.8167 -117.1167 115° Southeast 286 329 6,100 -1,500 Descending Southern California TRACON
06:31PM 32.7833 -117.0333 115° Southeast 253 291 5,000 -540 Descending Southern California TRACON
06:32PM 32.7500 -116.9667 121° Southeast 188 216 5,000 -120 Level Southern California TRACON
06:33PM 32.7167 -116.9500 157° South 182 209 4,800 -660 Descending Southern California TRACON
06:34PM 32.6833 -116.9667 203° Southwest 191 220 3,700 -1,140 Descending Southern California TRACON
06:35PM 32.7000 -117.0167 292° West 191 220 2,500 -1,020 Descending Southern California TRACON
06:36PM 32.7000 -117.0833 270° West 170 196 1,700 -720 Descending Southern California TRACON
06:37PM 32.7167 -117.1333 292° West 140 161 1,100 -540 Descending Southern California TRACON
06:37PM 32.7197 -117.1331 North 151 174 1,000 -600 Descending Los Angeles Center
06:38PM 32.7319 -117.1772 288° West 141 162 300 -720 Descending Los Angeles Center
06:40PM 32.7333 -117.1833 248° West  Level FlightAware Approximate
06:47PM 32.7336 -117.1897 248° West  Level Estimated